createdAt,value
2019-06-07T00:02:49.583Z,13.04
2019-06-07T00:06:07.136Z,13.03
2019-06-07T00:09:26.735Z,13.02
2019-06-07T00:12:49.494Z,12.99
2019-06-07T00:16:08.679Z,12.99
2019-06-07T00:19:17.660Z,13.01
2019-06-07T00:22:32.909Z,13.00
2019-06-07T00:25:34.291Z,12.98
2019-06-07T00:28:41.579Z,12.97
2019-06-07T00:31:48.831Z,12.92
2019-06-07T00:34:56.031Z,12.89
2019-06-07T00:38:03.409Z,12.85
2019-06-07T00:41:12.397Z,12.80
2019-06-07T00:44:29.035Z,12.82
2019-06-07T00:47:51.779Z,12.80
2019-06-07T00:51:08.473Z,12.72
2019-06-07T00:54:28.225Z,12.71
2019-06-07T00:57:35.484Z,12.65
2019-06-07T01:01:00.617Z,12.66
2019-06-07T01:04:19.448Z,12.67
2019-06-07T01:07:44.251Z,12.65
2019-06-07T01:10:54.051Z,12.59
2019-06-07T01:14:09.945Z,12.63
2019-06-07T01:17:40.947Z,12.62
2019-06-07T01:20:37.204Z,12.58
2019-06-07T01:24:12.113Z,12.62
2019-06-07T01:27:28.724Z,12.59
2019-06-07T01:30:45.674Z,12.60
2019-06-07T01:33:52.898Z,12.58
2019-06-07T01:37:09.761Z,12.58
2019-06-07T01:40:31.853Z,12.60
2019-06-07T01:43:33.817Z,12.56
2019-06-07T01:46:56.511Z,12.60
2019-06-07T01:50:13.305Z,12.58
2019-06-07T01:53:31.585Z,12.56
2019-06-07T01:56:48.342Z,12.54
2019-06-07T02:00:11.461Z,12.55
2019-06-07T02:03:21.408Z,12.52
2019-06-07T02:06:32.051Z,12.54
2019-06-07T02:09:37.033Z,12.53
2019-06-07T02:12:44.481Z,12.54
2019-06-07T02:15:51.810Z,12.54
2019-06-07T02:19:14.653Z,12.60
2019-06-07T02:22:37.448Z,12.61
2019-06-07T02:26:00.275Z,12.57
2019-06-07T02:29:16.986Z,12.57
2019-06-07T02:32:37.101Z,12.57
2019-06-07T02:35:53.033Z,12.56
2019-06-07T02:39:12.789Z,12.55
2019-06-07T02:42:39.113Z,12.57
2019-06-07T02:45:47.861Z,12.58
2019-06-07T02:49:04.750Z,12.55
2019-06-07T02:52:27.370Z,12.54
2019-06-07T02:56:34.031Z,12.51
2019-06-07T02:59:12.540Z,12.57
2019-06-07T03:02:19.929Z,12.50
2019-06-07T03:05:44.236Z,12.54
2019-06-07T03:08:53.068Z,12.49
2019-06-07T03:12:11.574Z,12.49
2019-06-07T03:15:37.344Z,12.47
2019-06-07T03:19:07.986Z,12.43
2019-06-07T03:22:15.272Z,12.39
2019-06-07T03:25:22.574Z,12.36
2019-06-07T03:28:34.218Z,12.37
2019-06-07T03:31:46.403Z,12.34
2019-06-07T03:34:57.698Z,12.33
2019-06-07T03:38:17.363Z,12.30
2019-06-07T03:41:55.459Z,12.27
2019-06-07T03:45:01.444Z,12.23
2019-06-07T03:48:08.709Z,12.13
2019-06-07T03:51:24.811Z,12.11
2019-06-07T03:54:37.024Z,12.14
2019-06-07T03:58:30.182Z,12.10
2019-06-07T04:00:52.855Z,12.06
2019-06-07T04:04:00.141Z,12.04
2019-06-07T04:07:07.552Z,12.02
2019-06-07T04:10:15.153Z,12.02
2019-06-07T04:13:36.729Z,12.02
2019-06-07T04:16:50.320Z,12.02
2019-06-07T04:20:06.984Z,12.02
2019-06-07T04:23:28.207Z,12.02
2019-06-07T04:26:43.976Z,11.98
2019-06-07T04:30:08.438Z,11.98
2019-06-07T04:33:15.003Z,11.97
2019-06-07T04:36:39.589Z,11.98
2019-06-07T04:39:34.007Z,12.00
2019-06-07T04:42:50.322Z,12.01
2019-06-07T04:45:57.685Z,12.01
2019-06-07T04:49:05.062Z,12.01
2019-06-07T04:52:14.035Z,12.06
2019-06-07T04:55:21.502Z,12.04
2019-06-07T04:58:30.418Z,12.01
2019-06-07T05:02:13.423Z,12.09
2019-06-07T05:09:51.837Z,12.07
2019-06-07T05:13:45.263Z,12.13
2019-06-07T05:17:19.499Z,12.15
2019-06-07T05:20:49.621Z,12.23
2019-06-07T05:25:12.739Z,12.28
2019-06-07T05:27:53.953Z,12.38
2019-06-07T05:31:44.926Z,12.44
2019-06-07T05:35:40.941Z,12.50
2019-06-07T05:39:09.439Z,12.62
2019-06-07T05:43:09.240Z,12.71
2019-06-07T05:46:27.657Z,12.79
2019-06-07T05:53:46.427Z,13.11
2019-06-07T05:57:48.567Z,13.28
2019-06-07T06:01:41.089Z,13.40
2019-06-07T06:04:24.302Z,13.52
2019-06-07T06:08:01.912Z,13.62
2019-06-07T06:11:16.202Z,13.73
2019-06-07T06:14:39.566Z,13.92
2019-06-07T06:17:56.996Z,14.03
2019-06-07T06:25:30.675Z,14.33
2019-06-07T06:29:14.310Z,14.50
2019-06-07T06:35:09.344Z,14.79
2019-06-07T06:38:38.576Z,14.94
2019-06-07T06:41:58.664Z,15.10
2019-06-07T06:45:00.201Z,15.26
2019-06-07T06:48:18.476Z,15.49
2019-06-07T06:51:25.923Z,15.57
2019-06-07T06:54:51.412Z,15.79
2019-06-07T07:08:26.678Z,16.49
2019-06-07T07:12:11.162Z,16.60
2019-06-07T07:19:42.427Z,16.82
2019-06-07T07:27:26.589Z,17.20
2019-06-07T07:31:03.031Z,17.34
2019-06-07T07:34:35.310Z,17.48
2019-06-07T07:38:38.236Z,17.50
2019-06-07T07:41:21.876Z,17.48
2019-06-07T07:44:41.498Z,17.54
2019-06-07T07:48:15.390Z,17.75
2019-06-07T07:51:17.466Z,17.81
2019-06-07T07:55:10.868Z,17.92
2019-06-07T07:58:34.302Z,18.11
2019-06-07T08:02:27.713Z,18.11
2019-06-07T08:05:51.469Z,18.22
2019-06-07T08:09:01.309Z,18.26
2019-06-07T08:12:16.028Z,18.42
2019-06-07T08:15:48.325Z,18.45
2019-06-07T08:19:07.539Z,18.61
2019-06-07T08:22:57.782Z,18.77
2019-06-07T08:26:05.369Z,18.76
2019-06-07T08:29:15.910Z,18.90
2019-06-07T08:36:20.236Z,19.12
2019-06-07T08:39:25.565Z,19.29
2019-06-07T08:42:37.368Z,19.37
2019-06-07T08:45:40.846Z,19.47
2019-06-07T08:48:48.254Z,19.57
2019-06-07T08:52:04.555Z,19.72
2019-06-07T08:55:05.126Z,19.76
2019-06-07T08:58:29.470Z,19.85
2019-06-07T09:01:58.472Z,19.92
2019-06-07T09:05:15.511Z,20.10
2019-06-07T09:08:34.432Z,20.22
2019-06-07T09:11:54.742Z,20.23
2019-06-07T09:15:22.966Z,20.38
2019-06-07T09:18:41.371Z,20.39
2019-06-07T09:21:32.303Z,20.45
2019-06-07T09:24:39.673Z,20.53
2019-06-07T09:27:47.164Z,20.72
2019-06-07T09:30:57.057Z,20.81
2019-06-07T09:34:08.370Z,20.86
2019-06-07T09:38:03.184Z,21.00
2019-06-07T09:40:27.750Z,21.06
2019-06-07T09:44:14.150Z,21.35
2019-06-07T09:47:14.100Z,21.57
2019-06-07T09:50:13.535Z,22.46
2019-06-07T09:53:34.824Z,22.35
2019-06-07T09:57:02.650Z,21.84
2019-06-07T10:00:40.907Z,21.67
2019-06-07T10:03:46.964Z,21.66
2019-06-07T10:07:17.500Z,21.58
2019-06-07T10:13:54.381Z,21.68
2019-06-07T10:17:03.194Z,21.56
2019-06-07T10:20:28.540Z,21.69
2019-06-07T10:23:35.746Z,21.53
2019-06-07T10:26:42.912Z,21.49
2019-06-07T10:29:50.273Z,21.52
2019-06-07T10:33:15.486Z,21.52
2019-06-07T10:36:34.755Z,21.61
2019-06-07T10:40:00.611Z,21.54
2019-06-07T10:43:09.125Z,21.54
2019-06-07T10:46:17.135Z,21.57
2019-06-07T10:49:24.307Z,21.60
2019-06-07T10:52:31.495Z,21.52
2019-06-07T10:55:38.762Z,21.53
2019-06-07T10:58:46.102Z,21.54
2019-06-07T11:01:53.359Z,21.67
2019-06-07T11:05:00.626Z,21.81
2019-06-07T11:08:08.042Z,21.83
2019-06-07T11:11:34.196Z,21.82
2019-06-07T11:14:58.037Z,21.93
2019-06-07T11:18:12.574Z,22.10
2019-06-07T11:21:18.936Z,22.10
2019-06-07T11:24:26.500Z,22.28
2019-06-07T11:28:04.247Z,22.17
2019-06-07T11:34:54.458Z,22.39
2019-06-07T11:38:01.924Z,22.32
2019-06-07T11:44:56.621Z,22.37
2019-06-07T11:47:59.817Z,22.41
2019-06-07T11:51:06.731Z,22.50
2019-06-07T11:54:14.220Z,22.57
2019-06-07T11:57:32.772Z,22.67
2019-06-07T12:00:52.046Z,22.74
2019-06-07T12:04:32.432Z,22.75
2019-06-07T12:07:25.198Z,22.87
2019-06-07T12:10:42.413Z,22.87
2019-06-07T12:13:51.371Z,22.96
2019-06-07T12:17:11.176Z,22.97
2019-06-07T12:20:20.859Z,22.99
2019-06-07T12:23:45.111Z,23.10
2019-06-07T12:26:52.367Z,23.06
2019-06-07T12:29:59.610Z,23.09
2019-06-07T12:33:22.192Z,23.16
2019-06-07T12:36:30.037Z,23.11
2019-06-07T12:39:37.345Z,23.14
2019-06-07T12:42:45.167Z,23.14
2019-06-07T12:46:03.607Z,23.17
2019-06-07T12:49:23.554Z,23.19
2019-06-07T12:52:30.955Z,23.16
2019-06-07T12:55:38.311Z,23.19
2019-06-07T12:58:45.630Z,23.23
2019-06-07T13:01:52.916Z,23.26
2019-06-07T13:05:04.353Z,23.26
2019-06-07T13:08:09.250Z,23.28
2019-06-07T13:11:31.563Z,23.41
2019-06-07T13:14:35.842Z,23.37
2019-06-07T13:17:43.150Z,23.34
2019-06-07T13:20:55.179Z,23.31
2019-06-07T13:24:48.456Z,23.40
2019-06-07T13:28:07.216Z,23.35
2019-06-07T13:31:14.478Z,23.41
2019-06-07T13:34:22.405Z,23.48
2019-06-07T13:37:30.183Z,23.52
2019-06-07T13:40:37.626Z,23.56
2019-06-07T13:43:44.904Z,23.61
2019-06-07T13:46:52.358Z,23.60
2019-06-07T13:50:19.503Z,23.70
2019-06-07T13:53:26.864Z,23.72
2019-06-07T13:56:33.728Z,23.74
2019-06-07T13:59:40.937Z,23.73
2019-06-07T14:02:48.262Z,23.76
2019-06-07T14:05:55.723Z,23.78
2019-06-07T14:09:33.430Z,23.91
2019-06-07T14:12:59.135Z,23.87
2019-06-07T14:16:17.919Z,23.87
2019-06-07T14:19:26.404Z,23.88
2019-06-07T14:22:33.923Z,23.88
2019-06-07T14:25:41.198Z,23.94
2019-06-07T14:28:59.850Z,24.04
2019-06-07T14:32:19.240Z,24.09
2019-06-07T14:35:38.771Z,24.12
2019-06-07T14:38:46.890Z,24.09
2019-06-07T14:42:08.361Z,24.14
2019-06-07T14:45:06.055Z,24.18
2019-06-07T14:48:12.598Z,24.19
2019-06-07T14:51:18.386Z,24.21
2019-06-07T14:55:05.272Z,24.21
2019-06-07T14:58:20.022Z,24.21
2019-06-07T15:09:15.520Z,24.26
2019-06-07T15:12:42.312Z,24.36
2019-06-07T15:16:00.254Z,24.34
2019-06-07T15:19:07.507Z,24.34
2019-06-07T15:22:27.996Z,24.40
2019-06-07T15:25:35.566Z,24.37
2019-06-07T15:28:42.908Z,24.38
2019-06-07T15:31:50.101Z,24.39
2019-06-07T15:34:57.285Z,24.39
2019-06-07T15:38:04.909Z,24.40
2019-06-07T15:41:30.935Z,24.44
2019-06-07T15:44:39.544Z,24.38
2019-06-07T15:47:47.546Z,24.37
2019-06-07T15:51:12.959Z,24.47
2019-06-07T15:54:20.189Z,24.41
2019-06-07T15:57:45.929Z,24.45
2019-06-07T16:00:53.295Z,24.40
2019-06-07T16:04:15.442Z,24.42
2019-06-07T16:11:24.914Z,24.38
2019-06-07T16:14:32.918Z,24.33
2019-06-07T16:17:41.968Z,24.29
2019-06-07T16:21:01.848Z,24.32
2019-06-07T16:24:09.280Z,24.27
2019-06-07T16:27:16.616Z,24.24
2019-06-07T16:30:23.978Z,24.20
2019-06-07T16:33:31.249Z,24.15
2019-06-07T16:36:38.572Z,24.12
2019-06-07T16:39:45.809Z,24.11
2019-06-07T16:42:53.171Z,24.09
2019-06-07T16:46:00.468Z,24.07
2019-06-07T16:49:07.746Z,24.05
2019-06-07T16:52:14.948Z,24.02
2019-06-07T16:55:22.296Z,24.00
2019-06-07T16:58:40.188Z,23.95
2019-06-07T17:01:46.008Z,23.87
2019-06-07T17:04:53.375Z,23.78
2019-06-07T17:08:00.670Z,23.68
2019-06-07T17:11:17.600Z,23.70
2019-06-07T17:14:36.759Z,23.61
2019-06-07T17:18:02.013Z,23.57
2019-06-07T17:21:07.769Z,23.47
2019-06-07T17:24:26.697Z,23.44
2019-06-07T17:27:43.883Z,23.32
2019-06-07T17:30:51.413Z,23.22
2019-06-07T17:33:57.775Z,23.09
2019-06-07T17:37:05.077Z,23.01
2019-06-07T17:40:14.060Z,22.90
2019-06-07T17:43:21.548Z,22.84
2019-06-07T17:46:28.881Z,22.77
2019-06-07T17:49:36.284Z,22.68
2019-06-07T17:52:43.846Z,22.62
2019-06-07T17:56:06.120Z,22.58
2019-06-07T17:59:13.569Z,22.42
2019-06-07T18:02:20.924Z,22.33
2019-06-07T18:05:28.226Z,22.23
2019-06-07T18:08:35.903Z,22.15
2019-06-07T18:11:52.548Z,22.12
2019-06-07T18:15:13.302Z,22.01
2019-06-07T18:18:20.670Z,21.91
2019-06-07T18:21:28.156Z,21.81
2019-06-07T18:24:35.521Z,21.72
2019-06-07T18:27:42.861Z,21.65
2019-06-07T18:31:05.633Z,21.58
2019-06-07T18:34:28.598Z,21.49
2019-06-07T18:37:45.240Z,21.38
2019-06-07T18:41:02.073Z,21.22
2019-06-07T18:44:21.846Z,21.07
2019-06-07T18:47:37.333Z,20.99
2019-06-07T18:50:55.945Z,20.94
2019-06-07T18:54:12.808Z,20.78
2019-06-07T18:57:32.440Z,20.62
2019-06-07T19:00:49.848Z,20.49
2019-06-07T19:03:58.218Z,20.41
2019-06-07T19:07:04.066Z,20.31
2019-06-07T19:10:13.399Z,20.27
2019-06-07T19:13:20.781Z,20.24
2019-06-07T19:16:28.182Z,20.15
2019-06-07T19:19:35.606Z,20.04
2019-06-07T19:22:42.968Z,19.91
2019-06-07T19:25:48.678Z,19.79
2019-06-07T19:29:14.160Z,19.72
2019-06-07T19:32:31.112Z,19.65
2019-06-07T19:35:51.392Z,19.54
2019-06-07T19:38:57.963Z,19.43
2019-06-07T19:42:23.296Z,19.35
2019-06-07T19:45:31.796Z,19.22
2019-06-07T19:48:39.600Z,19.14
2019-06-07T19:51:46.274Z,19.10
2019-06-07T19:54:53.811Z,19.06
2019-06-07T19:58:12.208Z,18.97
2019-06-07T20:01:30.905Z,18.92
2019-06-07T20:04:47.760Z,18.84
2019-06-07T20:08:05.028Z,18.80
2019-06-07T20:11:12.452Z,18.74
2019-06-07T20:14:20.015Z,18.63
2019-06-07T20:17:27.528Z,18.59
2019-06-07T20:20:34.819Z,18.54
2019-06-07T20:23:42.137Z,18.47
2019-06-07T20:27:00.287Z,18.44
2019-06-07T20:30:20.402Z,18.34
2019-06-07T20:33:37.254Z,18.27
2019-06-07T20:36:54.065Z,18.20
2019-06-07T20:40:23.691Z,18.17
2019-06-07T20:43:21.253Z,18.11
2019-06-07T20:46:28.539Z,18.03
2019-06-07T20:49:35.819Z,18.00
2019-06-07T20:52:43.172Z,17.97
2019-06-07T20:55:50.568Z,17.94
2019-06-07T20:58:56.233Z,17.92
2019-06-07T21:02:05.051Z,17.89
2019-06-07T21:05:22.050Z,17.89
2019-06-07T21:08:38.911Z,17.90
2019-06-07T21:11:55.967Z,17.85
2019-06-07T21:15:14.547Z,17.86
2019-06-07T21:18:30.824Z,17.84
2019-06-07T21:21:38.220Z,17.79
2019-06-07T21:24:55.022Z,17.81
2019-06-07T21:28:12.297Z,17.80
2019-06-07T21:31:19.750Z,17.74
2019-06-07T21:34:27.125Z,17.73
2019-06-07T21:37:34.525Z,17.74
2019-06-07T21:40:41.861Z,17.74
2019-06-07T21:44:02.405Z,17.76
2019-06-07T21:47:10.589Z,17.69
2019-06-07T21:50:33.467Z,17.80
2019-06-07T21:53:50.195Z,17.76
2019-06-07T21:57:06.986Z,17.78
2019-06-07T22:01:19.743Z,17.87
2019-06-07T22:04:26.337Z,17.77
2019-06-07T22:07:33.726Z,17.74
2019-06-07T22:10:50.595Z,17.65
2019-06-07T22:14:08.384Z,17.78
2019-06-07T22:17:15.277Z,17.73
2019-06-07T22:20:22.658Z,17.73
2019-06-07T22:23:30.112Z,17.71
2019-06-07T22:26:37.400Z,17.55
2019-06-07T22:29:44.782Z,17.58
2019-06-07T22:32:52.148Z,17.55
2019-06-07T22:36:11.027Z,17.69
2019-06-07T22:39:18.406Z,17.67
2019-06-07T22:42:25.805Z,17.65
2019-06-07T22:45:33.048Z,17.64
2019-06-07T22:48:40.276Z,17.63
2019-06-07T22:52:08.327Z,17.71
2019-06-07T22:55:18.148Z,17.69
2019-06-07T22:58:25.477Z,17.67
2019-06-07T23:01:32.925Z,17.67
2019-06-07T23:04:49.842Z,17.71
2019-06-07T23:08:06.613Z,17.71
2019-06-07T23:11:15.113Z,17.65
2019-06-07T23:14:25.587Z,17.64
2019-06-07T23:17:31.354Z,17.62
2019-06-07T23:20:38.631Z,17.63
2019-06-07T23:23:55.434Z,17.66
2019-06-07T23:27:02.821Z,17.61
2019-06-07T23:30:21.626Z,17.63
2019-06-07T23:33:29.231Z,17.57
2019-06-07T23:36:36.654Z,17.57
2019-06-07T23:39:44.102Z,17.56
2019-06-07T23:42:51.406Z,17.57
2019-06-07T23:46:08.298Z,17.59
2019-06-07T23:49:25.036Z,17.59
2019-06-07T23:52:41.838Z,17.58
2019-06-07T23:55:58.851Z,17.60
2019-06-07T23:59:16.104Z,17.59
